createdAt,value
2023-02-24T00:00:47.341Z,100050.80
2023-02-24T00:03:16.358Z,100055.63
2023-02-24T00:05:50.293Z,100060.14
2023-02-24T00:08:19.138Z,100056.16
2023-02-24T00:10:49.967Z,100041.82
2023-02-24T00:13:22.661Z,100048.95
2023-02-24T00:16:03.252Z,100044.56
2023-02-24T00:18:35.622Z,100044.84
2023-02-24T00:21:11.214Z,100044.05
2023-02-24T00:23:40.632Z,100028.77
2023-02-24T00:26:10.341Z,100028.02
2023-02-24T00:28:40.576Z,100024.69
2023-02-24T00:31:12.095Z,100016.92
2023-02-24T00:33:43.265Z,100021.36
2023-02-24T00:36:24.059Z,100011.36
2023-02-24T00:38:56.410Z,99998.30
2023-02-24T00:41:29.710Z,99988.41
2023-02-24T00:44:07.763Z,99973.09
2023-02-24T00:46:40.428Z,99964.60
2023-02-24T00:49:17.440Z,99962.15
2023-02-24T00:51:49.328Z,99968.83
2023-02-24T00:54:19.154Z,99964.57
2023-02-24T00:56:48.664Z,99959.13
2023-02-24T00:59:25.013Z,99953.27
2023-02-24T01:01:55.096Z,99950.56
2023-02-24T01:04:24.031Z,99951.44
2023-02-24T01:07:00.568Z,99947.98
2023-02-24T01:09:31.400Z,99947.41
2023-02-24T01:12:21.722Z,99945.52
2023-02-24T01:14:52.471Z,99946.95
2023-02-24T01:17:21.955Z,99946.02
2023-02-24T01:19:52.215Z,99949.20
2023-02-24T01:22:21.309Z,99952.66
2023-02-24T01:24:50.879Z,99955.69
2023-02-24T01:27:20.466Z,99945.27
2023-02-24T01:29:50.604Z,99944.52
2023-02-24T01:32:21.012Z,99947.38
2023-02-24T01:34:53.724Z,99940.73
2023-02-24T01:37:22.569Z,99937.66
2023-02-24T01:39:52.104Z,99933.77
2023-02-24T01:42:21.522Z,99932.52
2023-02-24T01:44:52.212Z,99921.46
2023-02-24T01:47:21.344Z,99925.31
2023-02-24T01:49:53.021Z,99923.46
2023-02-24T01:52:26.531Z,99929.09
2023-02-24T01:55:08.704Z,99924.48
2023-02-24T01:57:38.923Z,99921.70
2023-02-24T02:00:20.711Z,99927.94
2023-02-24T02:02:53.344Z,99920.36
2023-02-24T02:05:22.379Z,99918.52
2023-02-24T02:07:55.472Z,99922.66
2023-02-24T02:10:25.177Z,99922.22
2023-02-24T02:12:54.579Z,99918.38
2023-02-24T02:15:24.661Z,99913.25
2023-02-24T02:18:02.932Z,99914.16
2023-02-24T02:20:56.065Z,99908.05
2023-02-24T02:23:42.403Z,99907.25
2023-02-24T02:26:36.065Z,99913.48
2023-02-24T02:29:46.614Z,99904.65
2023-02-24T02:32:48.054Z,99907.64
2023-02-24T02:35:31.999Z,99907.92
2023-02-24T02:38:26.508Z,99906.27
2023-02-24T02:41:04.294Z,99903.26
2023-02-24T02:44:07.802Z,99908.79
2023-02-24T02:46:41.497Z,99916.02
2023-02-24T02:49:32.706Z,99908.04
2023-02-24T02:52:14.111Z,99903.63
2023-02-24T02:54:49.914Z,99901.77
2023-02-24T02:57:27.534Z,99901.79
2023-02-24T02:59:59.428Z,99896.74
2023-02-24T03:02:30.583Z,99894.09
2023-02-24T03:05:00.733Z,99891.91
2023-02-24T03:07:35.178Z,99895.16
2023-02-24T03:10:10.942Z,99890.33
2023-02-24T03:12:39.858Z,99892.70
2023-02-24T03:15:10.971Z,99888.59
2023-02-24T03:17:41.241Z,99882.09
2023-02-24T03:20:17.954Z,99874.30
2023-02-24T03:22:51.943Z,99862.39
2023-02-24T03:25:25.388Z,99862.34
2023-02-24T03:27:57.433Z,99853.12
2023-02-24T03:30:41.689Z,99852.60
2023-02-24T03:33:18.357Z,99842.64
2023-02-24T03:35:47.060Z,99835.62
2023-02-24T03:38:16.253Z,99824.83
2023-02-24T03:40:45.229Z,99825.00
2023-02-24T03:43:29.215Z,99817.55
2023-02-24T03:45:58.286Z,99814.79
2023-02-24T03:48:29.033Z,99805.41
2023-02-24T03:50:59.729Z,99801.27
2023-02-24T03:53:58.945Z,99791.65
2023-02-24T03:56:47.487Z,99787.54
2023-02-24T03:59:40.229Z,99785.50
2023-02-24T04:02:18.281Z,99781.27
2023-02-24T04:04:58.726Z,99769.29
2023-02-24T04:08:04.342Z,99755.58
2023-02-24T04:11:13.485Z,99742.20
2023-02-24T04:13:56.140Z,99735.23
2023-02-24T04:16:41.472Z,99728.05
2023-02-24T04:19:15.391Z,99729.38
2023-02-24T04:21:45.190Z,99721.92
2023-02-24T04:24:19.727Z,99727.77
2023-02-24T04:26:50.137Z,99722.48
2023-02-24T04:29:23.348Z,99717.58
2023-02-24T04:32:01.420Z,99709.78
2023-02-24T04:34:32.777Z,99696.96
2023-02-24T04:37:02.701Z,99695.86
2023-02-24T04:39:32.308Z,99693.50
2023-02-24T04:42:02.012Z,99689.60
2023-02-24T04:44:33.028Z,99694.03
2023-02-24T04:47:04.129Z,99695.19
2023-02-24T04:49:34.315Z,99696.47
2023-02-24T04:52:02.989Z,99697.08
2023-02-24T04:54:31.895Z,99687.73
2023-02-24T04:57:00.685Z,99688.93
2023-02-24T04:59:29.830Z,99697.60
2023-02-24T05:02:01.954Z,99698.84
2023-02-24T05:04:32.039Z,99692.83
2023-02-24T05:07:01.056Z,99689.02
2023-02-24T05:09:30.394Z,99695.84
2023-02-24T05:12:00.686Z,99693.50
2023-02-24T05:14:31.319Z,99699.92
2023-02-24T05:17:00.677Z,99699.29
2023-02-24T05:19:48.401Z,99706.73
2023-02-24T05:22:17.862Z,99705.48
2023-02-24T05:24:48.236Z,99705.49
2023-02-24T05:27:17.727Z,99703.64
2023-02-24T05:29:49.434Z,99705.67
2023-02-24T05:32:19.282Z,99705.44
2023-02-24T05:34:48.244Z,99700.91
2023-02-24T05:37:16.979Z,99709.45
2023-02-24T05:39:45.924Z,99713.61
2023-02-24T05:42:15.834Z,99707.09
2023-02-24T05:44:44.630Z,99711.80
2023-02-24T05:47:20.061Z,99706.14
2023-02-24T05:49:53.049Z,99709.34
2023-02-24T05:52:21.920Z,99705.77
2023-02-24T05:54:54.007Z,99702.55
2023-02-24T05:57:27.804Z,99700.47
2023-02-24T05:59:57.022Z,99697.38
2023-02-24T06:02:29.321Z,99688.77
2023-02-24T06:04:59.201Z,99686.42
2023-02-24T06:07:28.793Z,99683.91
2023-02-24T06:10:00.047Z,99682.18
2023-02-24T06:12:30.261Z,99671.45
2023-02-24T06:15:08.214Z,99668.08
2023-02-24T06:17:39.919Z,99671.11
2023-02-24T06:20:15.988Z,99674.36
2023-02-24T06:22:46.210Z,99674.27
2023-02-24T06:25:18.693Z,99663.94
2023-02-24T06:27:53.448Z,99662.84
2023-02-24T06:30:23.254Z,99664.81
2023-02-24T06:32:52.364Z,99664.92
2023-02-24T06:35:21.717Z,99663.06
2023-02-24T06:37:51.325Z,99658.00
2023-02-24T06:40:20.321Z,99666.33
2023-02-24T06:42:50.200Z,99654.90
2023-02-24T06:45:19.251Z,99657.02
2023-02-24T06:47:49.080Z,99655.60
2023-02-24T06:50:20.424Z,99653.36
2023-02-24T06:52:50.017Z,99662.73
2023-02-24T06:55:28.500Z,99656.77
2023-02-24T06:57:59.033Z,99656.78
2023-02-24T07:00:37.606Z,99664.77
2023-02-24T07:03:16.905Z,99665.44
2023-02-24T07:06:11.482Z,99676.68
2023-02-24T07:08:41.772Z,99671.78
2023-02-24T07:11:11.862Z,99672.50
2023-02-24T07:13:41.448Z,99672.68
2023-02-24T07:16:12.408Z,99667.31
2023-02-24T07:18:43.222Z,99673.73
2023-02-24T07:21:11.881Z,99668.40
2023-02-24T07:23:41.957Z,99676.30
2023-02-24T07:26:15.125Z,99664.12
2023-02-24T07:28:44.285Z,99669.64
2023-02-24T07:31:14.201Z,99676.86
2023-02-24T07:33:46.837Z,99681.70
2023-02-24T07:36:23.501Z,99682.27
2023-02-24T07:38:53.703Z,99687.23
2023-02-24T07:41:23.385Z,99682.04
2023-02-24T07:43:55.135Z,99689.06
2023-02-24T07:46:25.809Z,99691.23
2023-02-24T07:48:55.800Z,99690.68
2023-02-24T07:51:25.796Z,99688.81
2023-02-24T07:53:59.805Z,99691.59
2023-02-24T07:56:29.419Z,99682.58
2023-02-24T07:59:02.232Z,99688.71
2023-02-24T08:01:39.293Z,99691.09
2023-02-24T08:04:08.784Z,99682.17
2023-02-24T08:06:40.069Z,99688.33
2023-02-24T08:09:20.773Z,99695.13
2023-02-24T08:11:54.002Z,99709.88
2023-02-24T08:14:24.124Z,99699.60
2023-02-24T08:16:59.710Z,99694.61
2023-02-24T08:19:33.803Z,99693.05
2023-02-24T08:22:32.044Z,99693.07
2023-02-24T08:25:08.076Z,99685.93
2023-02-24T08:27:40.687Z,99682.61
2023-02-24T08:30:25.403Z,99670.88
2023-02-24T08:32:57.563Z,99673.23
2023-02-24T08:35:36.071Z,99661.23
2023-02-24T08:38:14.754Z,99667.16
2023-02-24T08:40:51.126Z,99657.33
2023-02-24T08:43:33.322Z,99665.42
2023-02-24T08:46:26.953Z,99657.30
2023-02-24T08:49:01.338Z,99659.59
2023-02-24T08:51:35.532Z,99655.08
2023-02-24T08:54:11.548Z,99653.58
2023-02-24T08:56:44.080Z,99647.41
2023-02-24T08:59:29.527Z,99645.09
2023-02-24T09:02:17.896Z,99646.66
2023-02-24T09:04:48.212Z,99646.98
2023-02-24T09:07:36.754Z,99635.20
2023-02-24T09:10:11.914Z,99630.04
2023-02-24T09:12:42.113Z,99620.54
2023-02-24T09:15:11.978Z,99619.98
2023-02-24T09:17:43.273Z,99620.70
2023-02-24T09:20:26.196Z,99621.64
2023-02-24T09:23:02.658Z,99632.70
2023-02-24T09:25:41.711Z,99630.23
2023-02-24T09:28:18.541Z,99627.19
2023-02-24T09:30:53.668Z,99613.52
2023-02-24T09:33:41.676Z,99613.21
2023-02-24T09:36:30.340Z,99614.34
2023-02-24T09:39:00.146Z,99601.59
2023-02-24T09:41:55.450Z,99597.05
2023-02-24T09:44:27.883Z,99600.30
2023-02-24T09:47:09.377Z,99602.09
2023-02-24T09:49:46.857Z,99600.18
2023-02-24T09:52:17.816Z,99599.99
2023-02-24T09:55:08.008Z,99606.96
2023-02-24T09:58:02.889Z,99608.41
2023-02-24T10:00:33.929Z,99604.35
2023-02-24T10:03:20.045Z,99610.66
2023-02-24T10:06:12.517Z,99606.27
2023-02-24T10:08:49.891Z,99604.67
2023-02-24T10:11:32.950Z,99598.89
2023-02-24T10:14:05.715Z,99592.39
2023-02-24T10:16:46.402Z,99588.84
2023-02-24T10:19:26.896Z,99585.68
2023-02-24T10:22:09.505Z,99591.35
2023-02-24T10:24:49.891Z,99581.36
2023-02-24T10:27:27.966Z,99574.45
2023-02-24T10:30:41.272Z,99570.70
2023-02-24T10:33:25.868Z,99568.65
2023-02-24T10:36:12.440Z,99567.12
2023-02-24T10:38:45.830Z,99566.04
2023-02-24T10:41:14.850Z,99559.30
2023-02-24T10:43:54.993Z,99554.49
2023-02-24T10:46:42.658Z,99549.23
2023-02-24T10:49:17.023Z,99548.40
2023-02-24T10:51:52.601Z,99554.98
2023-02-24T10:54:33.880Z,99553.98
2023-02-24T10:57:18.714Z,99545.47
2023-02-24T11:00:06.076Z,99538.04
2023-02-24T11:02:57.816Z,99526.95
2023-02-24T11:05:39.184Z,99531.60
2023-02-24T11:08:40.084Z,99520.09
2023-02-24T11:11:31.533Z,99502.21
2023-02-24T11:14:21.011Z,99493.79
2023-02-24T11:17:15.114Z,99494.65
2023-02-24T11:20:01.280Z,99490.08
2023-02-24T11:22:35.710Z,99490.16
2023-02-24T11:25:23.130Z,99485.63
2023-02-24T11:27:53.403Z,99476.72
2023-02-24T11:30:26.994Z,99470.96
2023-02-24T11:33:14.547Z,99468.76
2023-02-24T11:36:05.498Z,99462.34
2023-02-24T11:38:41.358Z,99453.36
2023-02-24T11:41:16.373Z,99450.00
2023-02-24T11:43:59.904Z,99447.17
2023-02-24T11:46:42.030Z,99432.97
2023-02-24T11:49:38.298Z,99432.83
2023-02-24T11:52:10.714Z,99422.17
2023-02-24T11:54:44.210Z,99416.17
2023-02-24T11:57:23.030Z,99408.63
2023-02-24T11:59:58.887Z,99397.64
2023-02-24T12:02:34.256Z,99391.01
2023-02-24T12:05:10.900Z,99382.13
2023-02-24T12:07:51.887Z,99371.45
2023-02-24T12:10:34.798Z,99364.45
2023-02-24T12:13:29.183Z,99350.07
2023-02-24T12:16:15.236Z,99342.61
2023-02-24T12:18:52.874Z,99331.59
2023-02-24T12:21:45.523Z,99323.58
2023-02-24T12:24:14.525Z,99316.19
2023-02-24T12:26:48.219Z,99307.34
2023-02-24T12:29:29.010Z,99289.73
2023-02-24T12:32:16.117Z,99278.14
2023-02-24T12:34:50.852Z,99258.86
2023-02-24T12:37:49.207Z,99250.45
2023-02-24T12:40:24.441Z,99239.44
2023-02-24T12:43:15.244Z,99234.52
2023-02-24T12:45:57.155Z,99220.88
2023-02-24T12:48:26.541Z,99211.68
2023-02-24T12:51:24.915Z,99202.13
2023-02-24T12:54:04.155Z,99202.45
2023-02-24T12:56:40.116Z,99196.38
2023-02-24T12:59:10.440Z,99190.02
2023-02-24T13:02:00.667Z,99183.59
2023-02-24T13:04:35.861Z,99176.08
2023-02-24T13:08:09.189Z,99170.35
2023-02-24T13:10:45.328Z,99162.12
2023-02-24T13:13:46.652Z,99149.76
2023-02-24T13:16:15.817Z,99142.23
2023-02-24T13:18:46.295Z,99132.20
2023-02-24T13:21:15.213Z,99128.04
2023-02-24T13:23:52.983Z,99121.62
2023-02-24T13:26:25.253Z,99110.70
2023-02-24T13:29:09.813Z,99100.29
2023-02-24T13:31:58.854Z,99091.88
2023-02-24T13:34:35.458Z,99088.69
2023-02-24T13:37:04.569Z,99082.70
2023-02-24T13:39:36.402Z,99073.45
2023-02-24T13:42:25.878Z,99070.21
2023-02-24T13:45:10.540Z,99066.30
2023-02-24T13:48:05.644Z,99062.59
2023-02-24T13:51:08.743Z,99065.57
2023-02-24T13:53:59.141Z,99059.75
2023-02-24T13:56:49.532Z,99059.06
2023-02-24T13:59:24.866Z,99050.88
2023-02-24T14:02:20.732Z,99044.86
2023-02-24T14:04:51.776Z,99044.12
2023-02-24T14:07:31.274Z,99042.78
2023-02-24T14:10:19.405Z,99038.06
2023-02-24T14:12:48.504Z,99033.25
2023-02-24T14:15:24.887Z,99032.27
2023-02-24T14:17:59.943Z,99030.27
2023-02-24T14:20:32.602Z,99024.02
2023-02-24T14:23:02.702Z,99023.24
2023-02-24T14:25:37.065Z,99023.50
2023-02-24T14:28:07.139Z,99018.08
2023-02-24T14:30:40.711Z,99014.07
2023-02-24T14:33:22.840Z,99010.23
2023-02-24T14:35:54.206Z,99009.61
2023-02-24T14:38:37.069Z,99005.52
2023-02-24T14:41:07.880Z,99007.77
2023-02-24T14:43:45.945Z,99006.95
2023-02-24T14:46:16.712Z,99004.90
2023-02-24T14:48:45.775Z,99005.95
2023-02-24T14:51:20.337Z,99002.74
2023-02-24T14:53:51.804Z,99004.57
2023-02-24T14:56:20.752Z,98994.46
2023-02-24T14:59:17.515Z,98990.45
2023-02-24T15:01:48.487Z,98986.80
2023-02-24T15:04:37.393Z,98984.96
2023-02-24T15:07:07.979Z,98987.15
2023-02-24T15:09:40.897Z,98987.83
2023-02-24T15:12:32.431Z,98994.71
2023-02-24T15:15:14.312Z,98993.95
2023-02-24T15:17:43.081Z,98986.23
2023-02-24T15:20:27.332Z,98993.77
2023-02-24T15:22:57.570Z,98990.17
2023-02-24T15:25:37.040Z,98988.37
2023-02-24T15:28:33.440Z,98989.67
2023-02-24T15:31:18.598Z,98986.70
2023-02-24T15:33:58.199Z,98986.24
2023-02-24T15:36:30.254Z,98987.02
2023-02-24T15:39:10.943Z,98988.55
2023-02-24T15:41:45.368Z,98989.04
2023-02-24T15:44:25.048Z,98986.14
2023-02-24T15:46:55.408Z,98985.44
2023-02-24T15:49:24.365Z,98988.37
2023-02-24T15:51:53.830Z,98990.52
2023-02-24T15:54:34.862Z,98989.37
2023-02-24T15:57:05.605Z,98996.44
2023-02-24T15:59:34.477Z,98993.18
2023-02-24T16:02:13.707Z,98993.28
2023-02-24T16:04:43.460Z,98995.50
2023-02-24T16:07:32.570Z,98999.70
2023-02-24T16:10:01.618Z,98999.19
2023-02-24T16:12:43.283Z,98992.83
2023-02-24T16:15:16.923Z,98982.89
2023-02-24T16:17:45.865Z,98975.38
2023-02-24T16:20:27.949Z,98970.21
2023-02-24T16:23:02.093Z,98968.94
2023-02-24T16:25:42.379Z,98966.05
2023-02-24T16:28:19.499Z,98972.63
2023-02-24T16:30:50.210Z,98967.05
2023-02-24T16:33:21.176Z,98967.83
2023-02-24T16:35:53.656Z,98959.33
2023-02-24T16:38:27.065Z,98956.05
2023-02-24T16:40:56.151Z,98951.36
2023-02-24T16:43:30.258Z,98949.08
2023-02-24T16:46:04.207Z,98944.21
2023-02-24T16:48:37.871Z,98938.84
2023-02-24T16:51:07.878Z,98933.09
2023-02-24T16:53:37.178Z,98934.14
2023-02-24T16:56:07.931Z,98937.55
2023-02-24T16:58:38.464Z,98938.50
2023-02-24T17:01:07.823Z,98938.87
2023-02-24T17:03:42.883Z,98943.38
2023-02-24T17:06:11.878Z,98945.67
2023-02-24T17:08:43.945Z,98947.31
2023-02-24T17:11:14.135Z,98947.63
2023-02-24T17:13:44.176Z,98946.39
2023-02-24T17:16:13.640Z,98949.81
2023-02-24T17:18:42.784Z,98953.81
2023-02-24T17:21:15.885Z,98949.91
2023-02-24T17:23:44.863Z,98948.40
2023-02-24T17:26:15.006Z,98952.69
2023-02-24T17:28:44.001Z,98947.15
2023-02-24T17:31:13.144Z,98949.59
2023-02-24T17:33:42.573Z,98946.91
2023-02-24T17:36:11.253Z,98945.55
2023-02-24T17:38:39.838Z,98946.64
2023-02-24T17:41:11.091Z,98947.67
2023-02-24T17:43:40.277Z,98954.25
2023-02-24T17:46:11.774Z,98950.93
2023-02-24T17:48:41.132Z,98952.52
2023-02-24T17:51:14.685Z,98949.66
2023-02-24T17:53:43.935Z,98951.11
2023-02-24T17:56:13.078Z,98945.83
2023-02-24T17:58:43.244Z,98946.07
2023-02-24T18:01:12.244Z,98951.02
2023-02-24T18:03:42.222Z,98961.03
2023-02-24T18:06:12.080Z,98953.77
2023-02-24T18:08:43.571Z,98947.98
2023-02-24T18:11:17.344Z,98939.23
2023-02-24T18:13:51.227Z,98937.10
2023-02-24T18:16:20.490Z,98931.05
2023-02-24T18:18:50.344Z,98930.91
2023-02-24T18:21:19.027Z,98926.23
2023-02-24T18:23:49.867Z,98922.17
2023-02-24T18:26:24.187Z,98914.81
2023-02-24T18:28:56.916Z,98913.23
2023-02-24T18:31:28.018Z,98919.75
2023-02-24T18:33:57.414Z,98921.06
2023-02-24T18:36:26.715Z,98915.23
2023-02-24T18:38:56.937Z,98918.32
2023-02-24T18:41:25.508Z,98915.86
2023-02-24T18:43:56.921Z,98919.62
2023-02-24T18:46:26.453Z,98918.14
2023-02-24T18:48:56.071Z,98917.02
2023-02-24T18:51:29.165Z,98910.27
2023-02-24T18:53:57.952Z,98905.85
2023-02-24T18:56:28.274Z,98909.55
2023-02-24T18:58:59.021Z,98903.30
2023-02-24T19:01:39.335Z,98903.87
2023-02-24T19:04:08.329Z,98901.77
2023-02-24T19:06:37.352Z,98902.84
2023-02-24T19:09:10.721Z,98897.74
2023-02-24T19:11:40.270Z,98897.78
2023-02-24T19:14:12.030Z,98892.11
2023-02-24T19:16:41.292Z,98885.52
2023-02-24T19:19:14.212Z,98875.80
2023-02-24T19:21:48.634Z,98871.84
2023-02-24T19:24:17.476Z,98871.55
2023-02-24T19:26:47.825Z,98867.75
2023-02-24T19:29:22.355Z,98873.09
2023-02-24T19:31:54.290Z,98872.58
2023-02-24T19:34:23.506Z,98872.95
2023-02-24T19:36:52.311Z,98873.46
2023-02-24T19:39:21.170Z,98867.08
2023-02-24T19:41:53.570Z,98865.98
2023-02-24T19:44:24.499Z,98870.39
2023-02-24T19:46:53.590Z,98869.77
2023-02-24T19:49:22.478Z,98860.58
2023-02-24T19:51:56.184Z,98860.69
2023-02-24T19:54:24.763Z,98859.94
2023-02-24T19:56:57.546Z,98857.27
2023-02-24T19:59:26.436Z,98848.73
2023-02-24T20:01:56.985Z,98841.67
2023-02-24T20:04:25.811Z,98838.44
2023-02-24T20:06:57.950Z,98833.33
2023-02-24T20:09:27.385Z,98822.02
2023-02-24T20:11:58.237Z,98817.33
2023-02-24T20:14:27.865Z,98809.27
2023-02-24T20:16:57.339Z,98806.70
2023-02-24T20:19:26.160Z,98797.45
2023-02-24T20:21:55.474Z,98797.35
2023-02-24T20:24:25.820Z,98786.91
2023-02-24T20:26:54.124Z,98775.95
2023-02-24T20:29:43.637Z,98767.86
2023-02-24T20:32:16.213Z,98767.02
2023-02-24T20:34:46.568Z,98759.61
2023-02-24T20:37:16.175Z,98758.09
2023-02-24T20:39:45.236Z,98745.41
2023-02-24T20:42:21.117Z,98733.44
2023-02-24T20:44:49.865Z,98724.45
2023-02-24T20:47:19.248Z,98714.79
2023-02-24T20:49:48.695Z,98709.80
2023-02-24T20:52:17.884Z,98707.67
2023-02-24T20:54:46.780Z,98700.73
2023-02-24T20:57:15.870Z,98696.95
2023-02-24T20:59:57.911Z,98691.03
2023-02-24T21:02:31.879Z,98684.43
2023-02-24T21:05:01.288Z,98675.65
2023-02-24T21:07:32.022Z,98667.17
2023-02-24T21:10:01.425Z,98659.55
2023-02-24T21:12:31.158Z,98652.70
2023-02-24T21:15:00.128Z,98652.94
2023-02-24T21:17:35.864Z,98646.15
2023-02-24T21:20:05.882Z,98641.27
2023-02-24T21:22:34.782Z,98633.17
2023-02-24T21:25:04.373Z,98626.88
2023-02-24T21:27:33.326Z,98623.42
2023-02-24T21:30:02.576Z,98620.67
2023-02-24T21:32:31.709Z,98613.52
2023-02-24T21:35:00.470Z,98608.69
2023-02-24T21:37:30.085Z,98603.73
2023-02-24T21:39:58.987Z,98598.42
2023-02-24T21:42:28.552Z,98593.61
2023-02-24T21:45:02.659Z,98591.64
2023-02-24T21:47:31.757Z,98586.92
2023-02-24T21:50:00.748Z,98578.45
2023-02-24T21:52:30.434Z,98576.92
2023-02-24T21:54:59.876Z,98570.13
2023-02-24T21:57:33.160Z,98567.64
2023-02-24T22:00:02.559Z,98557.49
2023-02-24T22:02:35.952Z,98553.83
2023-02-24T22:05:05.693Z,98549.01
2023-02-24T22:07:36.614Z,98541.08
2023-02-24T22:10:06.104Z,98540.02
2023-02-24T22:12:37.554Z,98536.45
2023-02-24T22:15:07.668Z,98529.56
2023-02-24T22:17:38.100Z,98525.23
2023-02-24T22:20:10.274Z,98515.38
2023-02-24T22:22:40.101Z,98509.02
2023-02-24T22:25:10.949Z,98500.16
2023-02-24T22:27:39.665Z,98492.08
2023-02-24T22:30:09.640Z,98488.83
2023-02-24T22:32:41.005Z,98481.79
2023-02-24T22:35:10.271Z,98479.95
2023-02-24T22:37:39.263Z,98474.89
2023-02-24T22:40:09.740Z,98464.09
2023-02-24T22:42:41.035Z,98453.45
2023-02-24T22:45:10.439Z,98447.72
2023-02-24T22:47:39.162Z,98438.34
2023-02-24T22:50:09.906Z,98433.89
2023-02-24T22:52:38.849Z,98424.11
2023-02-24T22:55:08.559Z,98418.95
2023-02-24T22:57:37.680Z,98410.21
2023-02-24T23:00:11.004Z,98403.06
2023-02-24T23:02:41.932Z,98386.81
2023-02-24T23:05:15.486Z,98375.20
2023-02-24T23:07:48.579Z,98360.64
2023-02-24T23:10:19.014Z,98351.09
2023-02-24T23:12:49.016Z,98337.05
2023-02-24T23:15:18.017Z,98325.99
2023-02-24T23:17:50.863Z,98309.94
2023-02-24T23:20:20.088Z,98297.23
2023-02-24T23:22:53.193Z,98281.90
2023-02-24T23:25:23.501Z,98266.23
2023-02-24T23:27:52.185Z,98248.65
2023-02-24T23:30:21.279Z,98232.13
2023-02-24T23:32:50.100Z,98214.58
2023-02-24T23:35:19.373Z,98194.61
2023-02-24T23:37:48.575Z,98173.48
2023-02-24T23:40:17.776Z,98155.30
2023-02-24T23:42:46.759Z,98138.45
2023-02-24T23:45:17.595Z,98121.15
2023-02-24T23:47:46.915Z,98100.60
2023-02-24T23:50:19.180Z,98085.17
2023-02-24T23:52:48.980Z,98074.29
2023-02-24T23:55:20.323Z,98060.71
2023-02-24T23:57:49.596Z,98041.15
